createdAt,value
2023-10-26T00:00:08.957Z,10.84
2023-10-26T00:02:35.464Z,10.78
2023-10-26T00:05:02.141Z,10.82
2023-10-26T00:07:29.250Z,10.79
2023-10-26T00:09:55.688Z,10.84
2023-10-26T00:12:23.294Z,10.85
2023-10-26T00:14:49.881Z,10.84
2023-10-26T00:17:16.508Z,10.87
2023-10-26T00:19:42.960Z,10.88
2023-10-26T00:22:09.432Z,10.83
2023-10-26T00:24:36.067Z,10.88
2023-10-26T00:27:02.592Z,10.87
2023-10-26T00:29:29.141Z,10.88
2023-10-26T00:31:55.648Z,10.90
2023-10-26T00:34:22.122Z,10.85
2023-10-26T00:36:48.847Z,10.82
2023-10-26T00:39:15.333Z,10.79
2023-10-26T00:41:42.592Z,10.82
2023-10-26T00:44:09.135Z,10.78
2023-10-26T00:46:36.491Z,10.76
2023-10-26T00:49:03.633Z,10.69
2023-10-26T00:51:30.328Z,10.67
2023-10-26T00:53:56.833Z,10.57
2023-10-26T00:56:23.376Z,10.53
2023-10-26T00:58:50.009Z,10.54
2023-10-26T01:01:16.617Z,10.52
2023-10-26T01:03:43.292Z,10.50
2023-10-26T01:06:09.932Z,10.49
2023-10-26T01:08:36.932Z,10.49
2023-10-26T01:11:03.968Z,10.48
2023-10-26T01:13:31.364Z,10.46
2023-10-26T01:15:57.890Z,10.45
2023-10-26T01:18:24.580Z,10.41
2023-10-26T01:20:51.225Z,10.36
2023-10-26T01:23:17.773Z,10.40
2023-10-26T01:25:46.268Z,10.37
2023-10-26T01:28:12.908Z,10.37
2023-10-26T01:30:41.924Z,10.38
2023-10-26T01:33:08.507Z,10.42
2023-10-26T01:35:39.757Z,10.41
2023-10-26T01:38:06.396Z,10.49
2023-10-26T01:40:33.448Z,10.52
2023-10-26T01:42:59.916Z,10.57
2023-10-26T01:45:26.461Z,10.59
2023-10-26T01:47:53.606Z,10.56
2023-10-26T01:50:20.165Z,10.60
2023-10-26T01:52:46.818Z,10.59
2023-10-26T01:55:13.374Z,10.57
2023-10-26T01:57:39.842Z,10.60
2023-10-26T02:00:07.046Z,10.59
2023-10-26T02:02:33.604Z,10.65
2023-10-26T02:05:00.192Z,10.62
2023-10-26T02:07:26.712Z,10.61
2023-10-26T02:09:53.168Z,10.54
2023-10-26T02:12:19.753Z,10.56
2023-10-26T02:14:46.274Z,10.50
2023-10-26T02:17:14.122Z,10.53
2023-10-26T02:19:40.709Z,10.54
2023-10-26T02:22:07.211Z,10.56
2023-10-26T02:24:33.689Z,10.54
2023-10-26T02:27:00.278Z,10.52
2023-10-26T02:29:26.879Z,10.51
2023-10-26T02:31:53.360Z,10.47
2023-10-26T02:34:19.910Z,10.50
2023-10-26T02:36:46.439Z,10.48
2023-10-26T02:39:12.967Z,10.42
2023-10-26T02:41:39.507Z,10.38
2023-10-26T02:44:06.049Z,10.37
2023-10-26T02:46:32.564Z,10.25
2023-10-26T02:48:59.160Z,10.28
2023-10-26T02:51:25.764Z,10.16
2023-10-26T02:53:52.331Z,10.28
2023-10-26T02:56:18.853Z,10.25
2023-10-26T02:58:45.318Z,10.29
2023-10-26T03:01:11.781Z,10.28
2023-10-26T03:03:38.347Z,10.35
2023-10-26T03:06:05.117Z,10.32
2023-10-26T03:08:31.607Z,10.43
2023-10-26T03:10:58.086Z,10.51
2023-10-26T03:13:24.553Z,10.51
2023-10-26T03:15:51.080Z,10.54
2023-10-26T03:18:17.723Z,10.55
2023-10-26T03:20:44.336Z,10.53
2023-10-26T03:23:10.936Z,10.55
2023-10-26T03:25:37.449Z,10.48
2023-10-26T03:28:04.145Z,10.49
2023-10-26T03:30:30.703Z,10.43
2023-10-26T03:32:57.446Z,10.47
2023-10-26T03:35:24.559Z,10.47
2023-10-26T03:37:51.066Z,10.50
2023-10-26T03:40:17.584Z,10.44
2023-10-26T03:42:44.171Z,10.36
2023-10-26T03:45:11.271Z,10.36
2023-10-26T03:47:37.848Z,10.36
2023-10-26T03:50:04.726Z,10.39
2023-10-26T03:52:31.454Z,10.35
2023-10-26T03:54:57.956Z,10.36
2023-10-26T03:57:24.497Z,10.45
2023-10-26T03:59:50.974Z,10.46
2023-10-26T04:02:17.485Z,10.42
2023-10-26T04:04:44.111Z,10.38
2023-10-26T04:07:10.664Z,10.31
2023-10-26T04:09:37.256Z,10.31
2023-10-26T04:12:04.114Z,10.32
2023-10-26T04:14:32.335Z,10.31
2023-10-26T04:16:58.821Z,10.36
2023-10-26T04:19:25.250Z,10.33
2023-10-26T04:21:51.743Z,10.32
2023-10-26T04:24:18.278Z,10.32
2023-10-26T04:26:44.774Z,10.31
2023-10-26T04:29:11.747Z,10.30
2023-10-26T04:31:38.242Z,10.30
2023-10-26T04:34:04.971Z,10.35
2023-10-26T04:36:31.524Z,10.24
2023-10-26T04:38:58.149Z,10.26
2023-10-26T04:41:24.781Z,10.26
2023-10-26T04:43:51.295Z,10.27
2023-10-26T04:46:17.901Z,10.35
2023-10-26T04:48:44.427Z,10.34
2023-10-26T04:51:10.960Z,10.36
2023-10-26T04:53:37.510Z,10.44
2023-10-26T04:56:04.221Z,10.47
2023-10-26T04:58:30.814Z,10.49
2023-10-26T05:00:57.504Z,10.44
2023-10-26T05:03:24.039Z,10.45
2023-10-26T05:05:50.620Z,10.50
2023-10-26T05:08:17.151Z,10.46
2023-10-26T05:10:43.692Z,10.48
2023-10-26T05:13:11.672Z,10.49
2023-10-26T05:15:38.347Z,10.51
2023-10-26T05:18:05.177Z,10.50
2023-10-26T05:20:34.101Z,10.53
2023-10-26T05:23:01.107Z,10.54
2023-10-26T05:25:27.667Z,10.56
2023-10-26T05:27:54.392Z,10.56
2023-10-26T05:30:21.120Z,10.54
2023-10-26T05:32:47.729Z,10.54
2023-10-26T05:35:15.214Z,10.47
2023-10-26T05:37:41.717Z,10.46
2023-10-26T05:40:09.613Z,10.48
2023-10-26T05:42:36.599Z,10.45
2023-10-26T05:45:04.006Z,10.45
2023-10-26T05:47:30.575Z,10.41
2023-10-26T05:49:57.112Z,10.44
2023-10-26T05:52:23.615Z,10.40
2023-10-26T05:54:50.235Z,10.37
2023-10-26T05:57:16.868Z,10.34
2023-10-26T05:59:43.370Z,10.29
2023-10-26T06:02:10.476Z,10.25
2023-10-26T06:04:37.104Z,10.26
2023-10-26T06:07:04.257Z,10.29
2023-10-26T06:09:31.057Z,10.32
2023-10-26T06:11:57.583Z,10.27
2023-10-26T06:14:24.096Z,10.31
2023-10-26T06:16:50.596Z,10.26
2023-10-26T06:19:17.067Z,10.26
2023-10-26T06:21:43.682Z,10.30
2023-10-26T06:24:10.583Z,10.34
2023-10-26T06:26:37.108Z,10.35
2023-10-26T06:29:03.597Z,10.33
2023-10-26T06:31:30.158Z,10.34
2023-10-26T06:33:56.691Z,10.37
2023-10-26T06:36:23.383Z,10.37
2023-10-26T06:38:50.112Z,10.33
2023-10-26T06:41:16.594Z,10.40
2023-10-26T06:43:43.615Z,10.41
2023-10-26T06:46:10.266Z,10.38
2023-10-26T06:48:37.087Z,10.41
2023-10-26T06:51:04.480Z,10.39
2023-10-26T06:53:31.045Z,10.40
2023-10-26T06:55:58.588Z,10.41
2023-10-26T06:58:25.120Z,10.42
2023-10-26T07:00:53.048Z,10.44
2023-10-26T07:03:21.117Z,10.32
2023-10-26T07:05:49.360Z,10.41
2023-10-26T07:08:16.732Z,10.35
2023-10-26T07:10:43.237Z,10.44
2023-10-26T07:13:09.791Z,10.38
2023-10-26T07:15:37.658Z,10.44
2023-10-26T07:18:05.365Z,10.48
2023-10-26T07:20:31.953Z,10.44
2023-10-26T07:22:58.507Z,10.44
2023-10-26T07:25:25.108Z,10.48
2023-10-26T07:27:51.810Z,10.72
2023-10-26T07:30:18.595Z,10.70
2023-10-26T07:32:45.198Z,10.67
2023-10-26T07:35:11.871Z,10.74
2023-10-26T07:37:38.858Z,10.78
2023-10-26T07:40:27.587Z,10.72
2023-10-26T07:42:53.238Z,10.77
2023-10-26T07:45:19.816Z,10.71
2023-10-26T07:47:46.458Z,10.70
2023-10-26T07:50:13.112Z,10.67
2023-10-26T07:52:39.697Z,10.67
2023-10-26T07:55:06.730Z,10.70
2023-10-26T07:57:33.250Z,10.68
2023-10-26T07:59:59.731Z,10.76
2023-10-26T08:02:26.259Z,10.66
2023-10-26T08:04:52.874Z,10.79
2023-10-26T08:07:19.397Z,10.79
2023-10-26T08:09:45.880Z,10.81
2023-10-26T08:12:12.768Z,10.81
2023-10-26T08:16:08.934Z,10.78
2023-10-26T08:17:26.889Z,10.81
2023-10-26T08:19:54.731Z,10.82
2023-10-26T08:22:24.456Z,10.80
2023-10-26T08:24:50.976Z,10.78
2023-10-26T08:27:17.513Z,10.71
2023-10-26T08:29:44.289Z,10.75
2023-10-26T08:32:10.936Z,10.84
2023-10-26T08:34:38.212Z,10.81
2023-10-26T08:39:34.228Z,10.75
2023-10-26T08:42:02.730Z,10.77
2023-10-26T08:44:29.968Z,10.72
2023-10-26T08:47:03.857Z,10.76
2023-10-26T08:49:34.477Z,10.71
2023-10-26T08:52:01.022Z,10.82
2023-10-26T08:54:28.145Z,10.79
2023-10-26T08:56:54.937Z,10.89
2023-10-26T08:59:24.403Z,10.92
2023-10-26T09:01:51.345Z,10.98
2023-10-26T09:04:18.321Z,11.00
2023-10-26T09:06:45.252Z,11.00
2023-10-26T09:09:11.761Z,10.98
2023-10-26T09:11:38.909Z,11.01
2023-10-26T09:14:17.610Z,10.99
2023-10-26T09:16:48.478Z,11.00
2023-10-26T09:19:17.037Z,11.10
2023-10-26T09:22:01.528Z,11.08
2023-10-26T09:24:30.092Z,11.24
2023-10-26T09:27:00.091Z,11.24
2023-10-26T09:29:42.539Z,11.03
2023-10-26T09:32:10.145Z,11.19
2023-10-26T09:34:44.212Z,11.28
2023-10-26T09:37:11.558Z,11.34
2023-10-26T09:39:39.484Z,11.33
2023-10-26T09:42:13.111Z,11.50
2023-10-26T09:44:40.023Z,11.54
2023-10-26T09:47:07.733Z,11.63
2023-10-26T09:49:34.687Z,11.76
2023-10-26T09:52:01.299Z,11.84
2023-10-26T09:54:30.989Z,11.96
2023-10-26T09:57:19.117Z,11.97
2023-10-26T09:59:49.583Z,12.16
2023-10-26T10:02:17.241Z,12.37
2023-10-26T10:04:45.150Z,12.54
2023-10-26T10:07:17.582Z,12.76
2023-10-26T10:10:02.522Z,12.77
2023-10-26T10:12:29.054Z,12.90
2023-10-26T10:15:15.715Z,12.87
2023-10-26T10:17:44.984Z,12.85
2023-10-26T10:20:21.161Z,12.71
2023-10-26T10:22:48.822Z,12.79
2023-10-26T10:25:19.184Z,12.75
2023-10-26T10:27:49.015Z,12.73
2023-10-26T10:30:17.634Z,12.78
2023-10-26T10:32:48.062Z,12.62
2023-10-26T10:35:29.009Z,12.64
2023-10-26T10:38:17.200Z,12.73
2023-10-26T10:40:55.800Z,12.93
2023-10-26T10:43:35.474Z,12.99
2023-10-26T10:46:15.604Z,13.11
2023-10-26T10:49:05.424Z,12.96
2023-10-26T10:51:43.234Z,13.14
2023-10-26T10:54:30.755Z,13.28
2023-10-26T10:57:05.521Z,13.42
2023-10-26T10:59:32.061Z,13.49
2023-10-26T11:02:11.966Z,13.46
2023-10-26T11:05:02.324Z,13.44
2023-10-26T11:07:32.715Z,13.57
2023-10-26T11:10:00.130Z,13.61
2023-10-26T11:12:27.626Z,13.67
2023-10-26T11:14:55.076Z,13.73
2023-10-26T11:17:23.617Z,13.78
2023-10-26T11:19:51.032Z,13.68
2023-10-26T11:22:18.679Z,13.66
2023-10-26T11:24:46.608Z,13.57
2023-10-26T11:27:14.218Z,13.61
2023-10-26T11:29:42.073Z,13.59
2023-10-26T11:32:22.060Z,13.53
2023-10-26T11:35:03.973Z,13.55
2023-10-26T11:37:31.049Z,13.49
2023-10-26T11:39:57.533Z,13.61
2023-10-26T11:42:52.665Z,13.49
2023-10-26T11:45:21.011Z,13.55
2023-10-26T11:47:53.224Z,13.69
2023-10-26T11:50:29.820Z,13.63
2023-10-26T11:53:01.184Z,13.66
2023-10-26T11:55:29.496Z,13.75
2023-10-26T11:57:59.526Z,13.81
2023-10-26T12:00:27.572Z,13.80
2023-10-26T12:02:56.006Z,13.87
2023-10-26T12:05:23.514Z,13.87
2023-10-26T12:07:50.376Z,13.80
2023-10-26T12:10:21.774Z,13.75
2023-10-26T12:12:50.056Z,13.80
2023-10-26T12:15:16.783Z,13.92
2023-10-26T12:17:43.279Z,13.99
2023-10-26T12:20:10.006Z,13.99
2023-10-26T12:22:36.574Z,14.00
2023-10-26T12:25:07.804Z,13.83
2023-10-26T12:28:19.537Z,13.86
2023-10-26T12:30:22.154Z,13.84
2023-10-26T12:32:48.652Z,13.91
2023-10-26T12:35:15.227Z,13.89
2023-10-26T12:37:41.834Z,13.85
2023-10-26T12:40:09.322Z,13.83
2023-10-26T12:42:40.436Z,13.79
2023-10-26T12:45:07.524Z,13.80
2023-10-26T12:47:34.076Z,13.70
2023-10-26T12:50:00.585Z,13.67
2023-10-26T12:52:27.094Z,13.66
2023-10-26T12:54:53.602Z,13.59
2023-10-26T12:57:20.212Z,13.57
2023-10-26T12:59:46.817Z,13.58
2023-10-26T13:02:13.308Z,13.59
2023-10-26T13:04:39.953Z,13.65
2023-10-26T13:07:06.383Z,13.67
2023-10-26T13:09:32.895Z,13.65
2023-10-26T13:11:59.383Z,13.64
2023-10-26T13:14:25.847Z,13.74
2023-10-26T13:16:58.646Z,13.80
2023-10-26T13:19:26.279Z,13.90
2023-10-26T13:21:53.021Z,13.93
2023-10-26T13:24:19.634Z,14.06
2023-10-26T13:26:46.282Z,13.99
2023-10-26T13:29:12.805Z,14.01
2023-10-26T13:31:39.361Z,14.05
2023-10-26T13:34:08.521Z,14.09
2023-10-26T13:36:35.386Z,14.07
2023-10-26T13:39:04.838Z,14.05
2023-10-26T13:41:31.348Z,14.10
2023-10-26T13:43:59.819Z,14.12
2023-10-26T13:46:26.583Z,14.18
2023-10-26T13:48:53.133Z,14.14
2023-10-26T13:51:19.973Z,14.14
2023-10-26T13:53:46.500Z,13.95
2023-10-26T13:56:13.236Z,13.90
2023-10-26T13:58:39.684Z,13.89
2023-10-26T14:01:15.862Z,13.68
2023-10-26T14:03:42.540Z,13.66
2023-10-26T14:06:09.265Z,13.63
2023-10-26T14:08:36.058Z,13.64
2023-10-26T14:11:02.586Z,13.50
2023-10-26T14:13:29.670Z,13.55
2023-10-26T14:15:56.387Z,13.51
2023-10-26T14:18:23.121Z,13.49
2023-10-26T14:20:49.663Z,13.44
2023-10-26T14:23:16.148Z,13.43
2023-10-26T14:25:42.849Z,13.41
2023-10-26T14:28:09.377Z,13.36
2023-10-26T14:30:35.964Z,13.33
2023-10-26T14:33:02.533Z,13.42
2023-10-26T14:35:29.959Z,13.43
2023-10-26T14:37:59.707Z,13.46
2023-10-26T14:40:26.878Z,13.65
2023-10-26T14:42:53.831Z,13.82
2023-10-26T14:45:20.360Z,14.34
2023-10-26T14:47:47.073Z,14.49
2023-10-26T14:50:13.584Z,14.36
2023-10-26T14:52:40.137Z,14.38
2023-10-26T14:55:07.251Z,14.59
2023-10-26T14:57:34.049Z,14.65
2023-10-26T15:00:00.624Z,14.95
2023-10-26T15:02:27.149Z,15.32
2023-10-26T15:04:54.048Z,15.40
2023-10-26T15:07:20.923Z,15.26
2023-10-26T15:10:23.515Z,15.28
2023-10-26T15:12:33.813Z,14.96
2023-10-26T15:15:00.329Z,14.61
2023-10-26T15:17:26.889Z,14.43
2023-10-26T15:19:53.600Z,14.25
2023-10-26T15:22:20.081Z,14.04
2023-10-26T15:24:48.449Z,13.78
2023-10-26T15:27:15.008Z,13.64
2023-10-26T15:29:43.147Z,13.53
2023-10-26T15:32:09.958Z,13.43
2023-10-26T15:34:36.621Z,13.12
2023-10-26T15:37:03.556Z,13.18
2023-10-26T15:39:34.194Z,13.09
2023-10-26T15:42:00.711Z,13.03
2023-10-26T15:44:27.290Z,12.94
2023-10-26T15:46:53.755Z,12.82
2023-10-26T15:49:31.498Z,12.83
2023-10-26T15:52:02.352Z,12.75
2023-10-26T15:54:29.054Z,12.72
2023-10-26T15:56:55.486Z,12.65
2023-10-26T15:59:24.385Z,12.58
2023-10-26T16:01:51.030Z,12.57
2023-10-26T16:04:17.571Z,12.55
2023-10-26T16:06:46.630Z,12.50
2023-10-26T16:09:13.930Z,12.44
2023-10-26T16:11:40.485Z,12.39
2023-10-26T16:14:06.963Z,12.37
2023-10-26T16:16:33.503Z,12.31
2023-10-26T16:19:00.081Z,12.27
2023-10-26T16:21:26.602Z,12.22
2023-10-26T16:23:53.110Z,12.21
2023-10-26T16:26:19.731Z,12.19
2023-10-26T16:28:49.107Z,12.23
2023-10-26T16:31:17.166Z,12.23
2023-10-26T16:33:44.731Z,12.19
2023-10-26T16:36:11.227Z,12.20
2023-10-26T16:38:37.658Z,12.20
2023-10-26T16:41:04.754Z,12.17
2023-10-26T16:43:31.272Z,12.17
2023-10-26T16:45:58.013Z,12.08
2023-10-26T16:48:27.459Z,12.08
2023-10-26T16:50:54.620Z,12.02
2023-10-26T16:53:31.205Z,12.02
2023-10-26T16:56:02.862Z,11.99
2023-10-26T16:58:32.718Z,11.99
2023-10-26T17:00:59.818Z,11.87
2023-10-26T17:03:27.452Z,12.02
2023-10-26T17:05:53.950Z,12.01
2023-10-26T17:08:20.917Z,12.06
2023-10-26T17:10:49.353Z,12.02
2023-10-26T17:13:16.705Z,12.03
2023-10-26T17:15:43.697Z,11.94
2023-10-26T17:18:11.015Z,11.96
2023-10-26T17:20:38.394Z,11.90
2023-10-26T17:23:04.873Z,11.93
2023-10-26T17:25:36.577Z,11.93
2023-10-26T17:28:03.348Z,11.90
2023-10-26T17:30:30.314Z,11.92
2023-10-26T17:32:57.448Z,11.88
2023-10-26T17:35:24.059Z,11.86
2023-10-26T17:37:50.969Z,11.86
2023-10-26T17:40:17.752Z,11.79
2023-10-26T17:42:44.358Z,11.74
2023-10-26T17:45:10.996Z,11.82
2023-10-26T17:47:37.741Z,11.77
2023-10-26T17:50:04.505Z,11.74
2023-10-26T17:52:30.984Z,11.72
2023-10-26T17:54:57.521Z,11.71
2023-10-26T17:57:24.467Z,11.63
2023-10-26T17:59:51.033Z,11.68
2023-10-26T18:02:17.501Z,11.66
2023-10-26T18:04:44.084Z,11.65
2023-10-26T18:07:15.668Z,11.64
2023-10-26T18:09:42.701Z,11.64
2023-10-26T18:12:11.666Z,11.64
2023-10-26T18:14:38.750Z,11.59
2023-10-26T18:17:05.202Z,11.59
2023-10-26T18:19:31.697Z,11.58
2023-10-26T18:21:58.149Z,11.53
2023-10-26T18:24:24.628Z,11.51
2023-10-26T18:26:51.108Z,11.52
2023-10-26T18:29:17.635Z,11.57
2023-10-26T18:31:44.343Z,11.55
2023-10-26T18:34:10.905Z,11.53
2023-10-26T18:36:40.043Z,11.55
2023-10-26T18:39:06.914Z,11.49
2023-10-26T18:41:34.013Z,11.53
2023-10-26T18:44:01.239Z,11.55
2023-10-26T18:46:27.978Z,11.50
2023-10-26T18:48:54.740Z,11.55
2023-10-26T18:51:24.016Z,11.53
2023-10-26T18:53:50.981Z,11.59
2023-10-26T18:56:23.659Z,11.62
2023-10-26T18:58:51.013Z,11.61
2023-10-26T19:01:17.733Z,11.58
2023-10-26T19:04:00.514Z,11.55
2023-10-26T19:06:28.460Z,11.58
2023-10-26T19:08:55.023Z,11.57
2023-10-26T19:11:21.557Z,11.58
2023-10-26T19:13:48.630Z,11.64
2023-10-26T19:16:15.766Z,11.62
2023-10-26T19:18:42.506Z,11.67
2023-10-26T19:21:09.521Z,11.65
2023-10-26T19:23:36.046Z,11.67
2023-10-26T19:26:03.065Z,11.66
2023-10-26T19:28:29.642Z,11.64
2023-10-26T19:30:56.328Z,11.64
2023-10-26T19:33:23.856Z,11.64
2023-10-26T19:35:50.444Z,11.62
2023-10-26T19:38:17.795Z,11.63
2023-10-26T19:40:44.293Z,11.61
2023-10-26T19:43:10.823Z,11.56
2023-10-26T19:45:37.358Z,11.57
2023-10-26T19:48:04.066Z,11.56
2023-10-26T19:50:32.086Z,11.54
2023-10-26T19:52:58.871Z,11.55
2023-10-26T19:55:25.320Z,11.48
2023-10-26T19:57:51.809Z,11.46
2023-10-26T20:00:18.895Z,11.48
2023-10-26T20:02:45.527Z,11.47
2023-10-26T20:05:13.045Z,11.50
2023-10-26T20:07:41.349Z,11.52
2023-10-26T20:10:09.172Z,11.52
2023-10-26T20:12:37.303Z,11.48
2023-10-26T20:15:04.353Z,11.50
2023-10-26T20:17:30.943Z,11.50
2023-10-26T20:19:57.679Z,11.53
2023-10-26T20:22:25.220Z,11.58
2023-10-26T20:24:51.715Z,11.57
2023-10-26T20:27:18.274Z,11.58
2023-10-26T20:29:44.881Z,11.54
2023-10-26T20:32:11.928Z,11.53
2023-10-26T20:34:38.452Z,11.49
2023-10-26T20:37:05.719Z,11.31
2023-10-26T20:39:33.403Z,11.35
2023-10-26T20:41:59.962Z,11.41
2023-10-26T20:44:26.414Z,11.37
2023-10-26T20:46:52.974Z,11.37
2023-10-26T20:49:19.566Z,11.33
2023-10-26T20:51:46.075Z,11.34
2023-10-26T20:54:12.592Z,11.33
2023-10-26T20:56:39.380Z,11.34
2023-10-26T20:59:05.971Z,11.33
2023-10-26T21:01:32.552Z,11.29
2023-10-26T21:03:59.060Z,11.31
2023-10-26T21:06:25.595Z,11.36
2023-10-26T21:08:54.318Z,11.34
2023-10-26T21:11:20.850Z,11.34
2023-10-26T21:13:47.336Z,11.33
2023-10-26T21:16:13.900Z,11.35
2023-10-26T21:18:40.405Z,11.34
2023-10-26T21:21:08.001Z,11.30
2023-10-26T21:23:35.767Z,11.32
2023-10-26T21:26:09.231Z,11.31
2023-10-26T21:28:36.459Z,11.29
2023-10-26T21:31:03.086Z,11.26
2023-10-26T21:33:29.817Z,11.25
2023-10-26T21:35:56.512Z,11.19
2023-10-26T21:38:23.135Z,11.18
2023-10-26T21:40:49.995Z,11.14
2023-10-26T21:43:16.928Z,11.17
2023-10-26T21:45:46.814Z,11.19
2023-10-26T21:48:14.065Z,10.95
2023-10-26T21:50:41.304Z,11.08
2023-10-26T21:53:08.568Z,11.13
2023-10-26T21:55:38.389Z,11.10
2023-10-26T21:58:05.192Z,11.02
2023-10-26T22:00:32.235Z,11.11
2023-10-26T22:02:58.928Z,11.08
2023-10-26T22:05:26.861Z,11.08
2023-10-26T22:07:53.351Z,11.00
2023-10-26T22:10:20.177Z,10.99
2023-10-26T22:12:46.777Z,11.00
2023-10-26T22:15:13.756Z,10.98
2023-10-26T22:17:44.014Z,10.93
2023-10-26T22:20:11.265Z,10.91
2023-10-26T22:22:38.393Z,10.86
2023-10-26T22:25:05.335Z,10.85
2023-10-26T22:27:32.061Z,10.85
2023-10-26T22:29:58.591Z,10.85
2023-10-26T22:32:25.317Z,10.82
2023-10-26T22:34:52.163Z,10.81
2023-10-26T22:37:19.485Z,10.80
2023-10-26T22:39:46.237Z,10.81
2023-10-26T22:42:12.909Z,10.81
2023-10-26T22:44:39.381Z,10.80
2023-10-26T22:47:06.072Z,10.77
2023-10-26T22:49:32.968Z,10.76
2023-10-26T22:51:59.951Z,10.81
2023-10-26T22:54:26.531Z,10.81
2023-10-26T22:56:52.975Z,10.83
2023-10-26T22:59:20.511Z,10.84
2023-10-26T23:01:47.502Z,10.81
2023-10-26T23:04:14.144Z,10.82
2023-10-26T23:06:40.693Z,10.82
2023-10-26T23:09:07.665Z,10.80
2023-10-26T23:11:34.175Z,10.81
2023-10-26T23:14:00.936Z,10.82
2023-10-26T23:16:27.489Z,10.81
2023-10-26T23:18:54.069Z,10.83
2023-10-26T23:21:20.600Z,10.85
2023-10-26T23:23:47.222Z,10.88
2023-10-26T23:26:14.146Z,10.87
2023-10-26T23:28:40.666Z,10.84
2023-10-26T23:31:10.908Z,10.84
2023-10-26T23:33:38.162Z,10.83
2023-10-26T23:36:10.207Z,10.85
2023-10-26T23:38:37.189Z,10.86
2023-10-26T23:41:03.953Z,10.84
2023-10-26T23:43:30.506Z,10.82
2023-10-26T23:45:58.788Z,10.86
2023-10-26T23:48:25.776Z,10.88
2023-10-26T23:50:52.736Z,10.86
2023-10-26T23:53:19.989Z,10.87
2023-10-26T23:55:47.038Z,10.92
2023-10-26T23:58:13.873Z,10.91
